Time;durP1;ratioP1;P1;durP2;ratioP2;P2;SDS_P1;SDS_P2;PMS_P1;PMS_P2;Temp;Humidity;BMP_temperature;BMP_pressure;BME280_temperature;BME280_humidity;BME280_pressure;Samples;Min_cycle;Max_cycle;Signal;HPM_P1;HPM_P2
2022/02/01 00:00:15;;;;;;;23.00;3.10;;;7.80;85.30;;;;;;5086379;28;20039;-68
2022/02/01 00:02:49;;;;;;;8.35;1.88;;;7.90;85.00;;;;;;5094363;28;20051;-68
2022/02/01 00:06:21;;;;;;;20.48;3.10;;;7.90;85.80;;;;;;5095808;28;20061;-68
2022/02/01 00:08:30;;;;;;;24.30;3.47;;;7.90;85.70;;;;;;5094733;28;20391;-68
2022/02/01 00:11:51;;;;;;;7.43;1.48;;;7.90;85.60;;;;;;5076161;28;20045;-68
2022/02/01 00:14:03;;;;;;;14.55;2.92;;;7.90;85.90;;;;;;5091179;28;20120;-68
2022/02/01 00:16:52;;;;;;;18.30;1.80;;;7.90;87.90;;;;;;5082452;28;20032;-68
2022/02/01 00:36:02;;;;;;;3.95;1.40;;;7.60;90.00;;;;;;5090512;28;20471;-69
2022/02/01 00:41:28;;;;;;;19.90;2.63;;;7.70;90.20;;;;;;5077976;28;20396;-68
2022/02/01 00:43:54;;;;;;;17.77;2.45;;;7.70;90.30;;;;;;5085896;28;20036;-68
2022/02/01 00:46:19;;;;;;;5.80;1.45;;;7.70;90.30;;;;;;5090776;28;20032;-68
2022/02/01 00:48:45;;;;;;;11.10;2.40;;;7.70;90.40;;;;;;5095145;28;20028;-68
2022/02/01 00:51:12;;;;;;;20.38;2.90;;;7.70;90.40;;;;;;5081209;28;20024;-68
2022/02/01 00:53:40;;;;;;;24.15;2.85;;;7.70;90.40;;;;;;5094809;28;20059;-67
2022/02/01 00:56:06;;;;;;;14.73;2.17;;;7.70;90.70;;;;;;5094646;28;20089;-68
2022/02/01 00:58:36;;;;;;;15.45;2.55;;;7.70;90.40;;;;;;5094204;28;20024;-68
2022/02/01 01:01:01;;;;;;;17.33;2.38;;;7.70;90.40;;;;;;5089715;28;20446;-67
2022/02/01 01:03:27;;;;;;;13.20;1.77;;;7.70;90.50;;;;;;5086339;28;20075;-68
2022/02/01 01:05:53;;;;;;;10.27;3.05;;;7.80;90.60;;;;;;5074720;28;20085;-68
2022/02/01 01:08:20;;;;;;;10.40;1.83;;;7.70;90.50;;;;;;5074405;28;20036;-68
2022/02/01 01:10:46;;;;;;;14.55;2.08;;;7.80;90.60;;;;;;5073939;28;20021;-68
2022/02/01 01:13:52;;;;;;;16.60;1.88;;;7.80;90.40;;;;;;5081461;28;20105;-68
2022/02/01 01:46:29;;;;;;;10.98;1.70;;;7.70;90.90;;;;;;5085254;28;20032;-68
2022/02/01 01:54:26;;;;;;;3.88;1.30;;;7.60;91.10;;;;;;5077251;28;20135;-68
2022/02/01 01:56:56;;;;;;;9.60;0.75;;;7.60;91.10;;;;;;5084975;28;20033;-68
2022/02/01 01:59:23;;;;;;;4.78;1.85;;;7.60;91.20;;;;;;5090763;28;20049;-68
2022/02/01 02:01:50;;;;;;;17.05;2.28;;;7.60;91.30;;;;;;5085222;28;20043;-68
2022/02/01 02:04:17;;;;;;;12.35;1.77;;;7.60;91.30;;;;;;5106733;28;20475;-68
2022/02/01 02:06:43;;;;;;;7.03;1.42;;;7.60;91.20;;;;;;5093874;28;20081;-68
2022/02/01 02:09:11;;;;;;;10.95;2.08;;;7.60;91.20;;;;;;5092426;28;20110;-68
2022/02/01 02:11:45;;;;;;;5.60;1.65;;;7.60;91.30;;;;;;5086826;28;20036;-68
2022/02/01 02:14:30;;;;;;;8.80;1.80;;;7.60;91.10;;;;;;5079853;28;20395;-68
2022/02/01 02:16:58;;;;;;;4.07;1.08;;;7.60;91.20;;;;;;5093255;28;20468;-68
2022/02/01 02:19:29;;;;;;;5.80;1.88;;;7.60;91.20;;;;;;5093129;28;20028;-68
2022/02/01 02:21:57;;;;;;;3.95;0.77;;;7.60;91.30;;;;;;5092153;28;20051;-68
2022/02/01 02:24:27;;;;;;;6.80;1.55;;;7.60;91.30;;;;;;5093147;28;20059;-67
2022/02/01 02:26:55;;;;;;;1.75;0.85;;;7.50;91.30;;;;;;5092948;28;20364;-68
2022/02/01 02:29:20;;;;;;;1.65;0.77;;;7.50;91.40;;;;;;5092164;28;20501;-68
2022/02/01 02:31:46;;;;;;;5.53;1.33;;;7.50;91.40;;;;;;5093018;28;20032;-67
2022/02/01 02:34:14;;;;;;;6.60;0.77;;;7.50;91.40;;;;;;5089429;28;20119;-68
2022/02/01 02:37:00;;;;;;;9.35;1.85;;;7.50;91.50;;;;;;5092293;28;20032;-68
2022/02/01 02:39:33;;;;;;;6.15;1.55;;;7.50;91.50;;;;;;5092569;28;20568;-68
2022/02/01 02:42:10;;;;;;;0.30;0.30;;;7.40;91.50;;;;;;5092828;28;20050;-67
2022/02/01 02:47:23;;;;;;;0.85;0.85;;;7.50;91.60;;;;;;5092769;28;20031;-68
2022/02/01 02:49:48;;;;;;;1.90;1.02;;;7.50;91.70;;;;;;5091977;28;20394;-68
2022/02/01 02:52:15;;;;;;;4.15;1.33;;;7.50;91.70;;;;;;5092511;28;20031;-67
2022/02/01 02:54:40;;;;;;;5.65;1.15;;;7.50;91.70;;;;;;5083165;28;20091;-68
2022/02/01 02:57:08;;;;;;;3.28;0.85;;;7.40;91.70;;;;;;5088977;28;20051;-68
2022/02/01 02:59:34;;;;;;;4.18;1.10;;;7.40;91.70;;;;;;5092535;28;20028;-68
2022/02/01 03:02:01;;;;;;;9.32;1.58;;;7.40;91.80;;;;;;5092320;28;20043;-68
2022/02/01 03:04:31;;;;;;;3.83;1.70;;;7.30;91.80;;;;;;5092056;28;20042;-68
2022/02/01 03:06:58;;;;;;;4.47;1.27;;;7.30;91.80;;;;;;5092507;28;20039;-68
2022/02/01 03:09:24;;;;;;;11.50;1.65;;;7.30;91.90;;;;;;5092208;28;20082;-68
2022/02/01 03:11:53;;;;;;;8.52;1.83;;;7.30;91.90;;;;;;5083587;28;20031;-67
2022/02/01 03:14:24;;;;;;;4.78;1.38;;;7.30;92.00;;;;;;5091776;28;20057;-68
2022/02/01 03:19:56;;;;;;;6.43;0.98;;;7.20;92.00;;;;;;5030079;28;20040;-68
2022/02/01 03:22:27;;;;;;;1.85;1.20;;;7.20;92.00;;;;;;5078977;28;20048;-68
2022/02/01 03:24:57;;;;;;;3.65;1.20;;;7.20;92.10;;;;;;5102805;28;20110;-68
2022/02/01 03:27:22;;;;;;;3.50;1.33;;;7.20;92.20;;;;;;5093142;28;20480;-68
2022/02/01 03:29:49;;;;;;;4.68;1.13;;;7.10;92.20;;;;;;5084816;28;20028;-68
2022/02/01 03:32:15;;;;;;;5.97;1.90;;;7.10;92.20;;;;;;5084533;28;20045;-68
2022/02/01 03:34:41;;;;;;;4.45;1.45;;;7.10;92.20;;;;;;5084054;28;20472;-68
2022/02/01 03:37:07;;;;;;;3.83;1.15;;;7.10;92.20;;;;;;5081639;28;20509;-67
2022/02/01 03:39:33;;;;;;;6.45;1.17;;;7.10;92.20;;;;;;5103985;28;20027;-68
2022/02/01 03:42:01;;;;;;;5.18;1.17;;;7.10;92.20;;;;;;5093141;28;20044;-68
2022/02/01 03:44:26;;;;;;;7.15;1.33;;;7.10;92.20;;;;;;5088378;28;20545;-68
2022/02/01 03:47:01;;;;;;;3.53;1.25;;;7.00;92.20;;;;;;5090739;28;20028;-68
2022/02/01 03:49:33;;;;;;;7.57;1.50;;;7.00;92.30;;;;;;5091799;28;20032;-68
2022/02/01 03:51:59;;;;;;;4.78;1.27;;;7.00;92.30;;;;;;5092436;28;20028;-68
2022/02/01 03:54:27;;;;;;;4.60;1.10;;;6.90;92.40;;;;;;5090870;28;20048;-67
2022/02/01 03:56:53;;;;;;;2.00;0.88;;;6.80;92.40;;;;;;5090263;28;20153;-68
2022/02/01 03:59:20;;;;;;;8.40;1.10;;;6.80;92.60;;;;;;5082867;28;20114;-68
2022/02/01 04:01:45;;;;;;;4.78;1.42;;;6.70;92.70;;;;;;5077942;28;20036;-68
2022/02/01 04:04:14;;;;;;;12.55;1.27;;;6.70;92.80;;;;;;5091746;28;20032;-68
2022/02/01 04:06:41;;;;;;;4.70;0.88;;;6.60;92.80;;;;;;5091566;28;20031;-68
2022/02/01 04:09:06;;;;;;;7.20;1.60;;;6.70;92.90;;;;;;5093836;28;20522;-68
2022/02/01 04:11:32;;;;;;;4.97;1.20;;;6.60;93.00;;;;;;5107299;28;20162;-68
2022/02/01 04:13:58;;;;;;;5.07;1.45;;;6.70;93.00;;;;;;5096346;28;20039;-68
2022/02/01 04:16:24;;;;;;;13.57;1.70;;;6.60;93.00;;;;;;5095485;28;20463;-67
2022/02/01 04:18:50;;;;;;;8.80;1.63;;;6.70;93.10;;;;;;5095352;28;20030;-68
2022/02/01 04:21:18;;;;;;;1.98;0.65;;;6.70;93.20;;;;;;5095084;28;20028;-67
2022/02/01 04:23:44;;;;;;;6.85;1.73;;;6.70;93.20;;;;;;5095271;28;20039;-68
2022/02/01 04:26:09;;;;;;;0.95;0.85;;;6.70;93.20;;;;;;5095562;28;20445;-68
2022/02/01 04:28:35;;;;;;;6.00;1.25;;;6.70;93.10;;;;;;5094240;28;20040;-68
2022/02/01 04:31:00;;;;;;;6.30;0.57;;;6.80;93.10;;;;;;5095116;28;20065;-67
2022/02/01 04:33:26;;;;;;;3.67;1.15;;;6.80;93.10;;;;;;5083050;28;20034;-68
2022/02/01 04:35:52;;;;;;;4.63;1.48;;;6.80;93.10;;;;;;5086236;28;20102;-68
2022/02/01 04:38:17;;;;;;;0.73;0.55;;;6.70;93.10;;;;;;5095174;28;20480;-68
2022/02/01 04:40:43;;;;;;;27.13;1.63;;;6.80;93.10;;;;;;5095181;28;20546;-67
2022/02/01 04:43:10;;;;;;;3.92;1.10;;;6.70;93.10;;;;;;5094573;28;20040;-68
2022/02/01 04:45:36;;;;;;;9.52;1.98;;;6.80;93.10;;;;;;5094804;28;20039;-68
2022/02/01 04:48:02;;;;;;;10.50;1.67;;;6.80;93.10;;;;;;5095086;28;20032;-68
2022/02/01 04:50:29;;;;;;;5.93;1.15;;;6.80;93.00;;;;;;5093882;28;20042;-68
2022/02/01 04:52:56;;;;;;;5.63;1.20;;;6.80;93.00;;;;;;5095024;28;20173;-67
2022/02/01 04:55:29;;;;;;;0.77;0.77;;;6.80;93.10;;;;;;5094558;28;20028;-68
2022/02/01 04:57:55;;;;;;;0.45;0.45;;;6.80;93.00;;;;;;5094340;28;20107;-68
2022/02/01 05:00:26;;;;;;;1.83;0.90;;;6.80;93.00;;;;;;5094370;28;20436;-70
2022/02/01 05:02:54;;;;;;;3.65;1.30;;;6.70;93.10;;;;;;5095042;28;20040;-68
2022/02/01 05:05:28;;;;;;;3.05;0.82;;;6.80;93.10;;;;;;5092561;28;20475;-68
2022/02/01 05:08:14;;;;;;;2.17;1.27;;;6.70;93.10;;;;;;5076092;28;20113;-68
2022/02/01 05:10:41;;;;;;;0.52;0.52;;;6.70;93.10;;;;;;5093343;28;20028;-68
2022/02/01 05:16:02;;;;;;;5.72;1.23;;;6.70;93.10;;;;;;5094673;28;20499;-68
2022/02/01 05:18:32;;;;;;;7.90;1.23;;;6.70;93.10;;;;;;5093627;28;20039;-68
2022/02/01 05:21:10;;;;;;;8.60;1.52;;;6.70;93.10;;;;;;5093871;28;20039;-68
2022/02/01 05:23:35;;;;;;;5.97;1.20;;;6.60;93.20;;;;;;5081891;28;20036;-67
2022/02/01 05:26:02;;;;;;;3.63;1.67;;;6.60;93.20;;;;;;5093280;28;20593;-68
2022/02/01 05:28:28;;;;;;;3.15;1.35;;;6.60;93.30;;;;;;5094376;28;20410;-67
2022/02/01 05:31:02;;;;;;;6.60;2.30;;;6.60;93.40;;;;;;5093348;28;20043;-68
2022/02/01 05:33:31;;;;;;;7.28;1.65;;;6.50;93.40;;;;;;5083154;28;20032;-67
2022/02/01 05:35:57;;;;;;;8.93;2.22;;;6.50;93.50;;;;;;5089505;28;20119;-67
2022/02/01 05:38:22;;;;;;;2.65;1.10;;;6.50;93.60;;;;;;5084360;28;20654;-67
2022/02/01 05:40:48;;;;;;;7.28;1.50;;;6.50;93.90;;;;;;5091145;28;20118;-67
2022/02/01 05:43:20;;;;;;;5.40;1.67;;;6.50;93.80;;;;;;5093906;28;20115;-67
2022/02/01 05:45:46;;;;;;;7.03;2.33;;;6.50;93.80;;;;;;5093175;28;20036;-68
2022/02/01 05:48:13;;;;;;;14.43;1.90;;;6.40;93.90;;;;;;5093958;28;20407;-67
2022/02/01 05:50:40;;;;;;;12.02;2.08;;;6.40;94.00;;;;;;5093776;28;20020;-67
2022/02/01 05:53:07;;;;;;;10.63;2.58;;;6.40;94.10;;;;;;5093064;28;20052;-67
2022/02/01 05:55:34;;;;;;;10.00;1.98;;;6.40;94.20;;;;;;5107137;28;20024;-68
2022/02/01 05:58:00;;;;;;;6.13;1.95;;;6.40;94.30;;;;;;5093446;28;20036;-67
2022/02/01 06:00:25;;;;;;;13.05;2.33;;;6.40;94.40;;;;;;5100296;28;20038;-67
2022/02/01 06:02:54;;;;;;;10.68;1.90;;;6.30;94.40;;;;;;5099420;28;20028;-68
2022/02/01 06:05:20;;;;;;;10.32;1.90;;;6.40;94.50;;;;;;5094154;28;20433;-67
2022/02/01 06:07:46;;;;;;;6.32;1.80;;;6.30;94.60;;;;;;5100343;28;20053;-68
2022/02/01 06:10:13;;;;;;;14.63;2.65;;;6.40;94.70;;;;;;5093573;28;20036;-67
2022/02/01 06:12:46;;;;;;;13.20;2.35;;;6.40;94.80;;;;;;5094127;28;20396;-68
2022/02/01 06:15:13;;;;;;;9.43;2.55;;;6.40;94.80;;;;;;5103983;28;20032;-67
2022/02/01 06:17:40;;;;;;;8.60;2.83;;;6.30;94.80;;;;;;5109775;28;20023;-67
2022/02/01 06:20:11;;;;;;;6.90;2.03;;;6.30;94.90;;;;;;5110944;28;20031;-68
2022/02/01 06:22:37;;;;;;;7.95;2.42;;;6.30;95.00;;;;;;5098453;28;20043;-71
2022/02/01 06:25:05;;;;;;;13.30;2.53;;;6.40;95.00;;;;;;5111036;28;20051;-66
2022/02/01 06:27:30;;;;;;;10.45;2.55;;;6.40;95.10;;;;;;5110293;28;20099;-66
2022/02/01 06:29:56;;;;;;;15.70;2.20;;;6.40;95.10;;;;;;5111217;28;20482;-66
2022/02/01 06:32:22;;;;;;;7.32;2.05;;;6.40;95.30;;;;;;5110406;28;20031;-66
2022/02/01 06:34:50;;;;;;;8.25;2.05;;;6.40;95.20;;;;;;5107085;28;20042;-67
2022/02/01 06:37:17;;;;;;;15.88;3.33;;;6.40;95.20;;;;;;5104513;28;20043;-66
2022/02/01 06:39:42;;;;;;;10.77;2.40;;;6.50;95.30;;;;;;5108508;28;20027;-66
2022/02/01 06:42:09;;;;;;;18.23;2.70;;;6.40;95.30;;;;;;5104731;28;20359;-67
2022/02/01 06:44:35;;;;;;;16.17;2.60;;;6.40;95.30;;;;;;5111075;28;20038;-66
2022/02/01 06:47:01;;;;;;;10.82;2.65;;;6.50;95.40;;;;;;5106766;28;20118;-67
2022/02/01 06:49:26;;;;;;;9.00;2.33;;;6.50;95.40;;;;;;5107131;28;20039;-68
2022/02/01 06:51:52;;;;;;;15.57;2.60;;;6.50;95.40;;;;;;5109612;28;20031;-67
2022/02/01 06:54:18;;;;;;;13.45;2.97;;;6.50;95.40;;;;;;5107716;28;20617;-67
2022/02/01 06:56:44;;;;;;;7.18;2.17;;;6.60;95.50;;;;;;5108354;28;20031;-66
2022/02/01 06:59:10;;;;;;;12.45;2.85;;;6.60;95.60;;;;;;5109412;28;20027;-66
2022/02/01 07:01:35;;;;;;;9.32;2.08;;;6.50;95.60;;;;;;5105427;28;20107;-66
2022/02/01 07:04:02;;;;;;;15.90;3.25;;;6.60;95.60;;;;;;5110242;28;20028;-66
2022/02/01 07:06:33;;;;;;;10.75;2.53;;;6.60;95.60;;;;;;5104043;28;20085;-66
2022/02/01 07:09:01;;;;;;;9.52;2.40;;;6.60;95.60;;;;;;5107494;28;20046;-69
2022/02/01 07:11:27;;;;;;;12.70;3.45;;;6.70;95.60;;;;;;5104979;28;20092;-67
2022/02/01 07:13:52;;;;;;;14.30;3.65;;;6.60;95.60;;;;;;5108464;28;20766;-66
2022/02/01 07:16:27;;;;;;;4.82;1.77;;;6.70;95.90;;;;;;5109961;28;20032;-68
2022/02/01 07:18:53;;;;;;;9.55;2.90;;;6.70;95.70;;;;;;5109654;28;20042;-70
2022/02/01 07:21:18;;;;;;;7.80;2.58;;;6.70;95.70;;;;;;5110489;28;20016;-66
2022/02/01 07:23:44;;;;;;;7.00;1.80;;;6.70;95.80;;;;;;5109826;28;20047;-67
2022/02/01 07:26:13;;;;;;;9.20;2.80;;;6.70;95.80;;;;;;5110288;28;20026;-67
2022/02/01 07:28:40;;;;;;;8.35;2.30;;;6.70;95.80;;;;;;5110698;28;20464;-67
2022/02/01 07:31:06;;;;;;;9.38;2.92;;;6.70;95.90;;;;;;5109885;28;20019;-67
2022/02/01 07:33:32;;;;;;;7.97;2.03;;;6.70;95.90;;;;;;5101202;28;20133;-69
2022/02/01 07:35:58;;;;;;;8.43;2.83;;;6.70;96.10;;;;;;5108607;28;20028;-67
2022/02/01 07:38:25;;;;;;;7.22;2.70;;;6.70;96.10;;;;;;5109786;28;20024;-66
2022/02/01 07:40:56;;;;;;;6.65;1.90;;;6.70;96.10;;;;;;5109319;28;20028;-66
2022/02/01 07:43:25;;;;;;;10.30;2.67;;;6.80;96.10;;;;;;5107651;28;20386;-68
2022/02/01 07:45:51;;;;;;;12.02;2.65;;;6.80;96.10;;;;;;5112816;28;20028;-66
2022/02/01 07:48:17;;;;;;;8.30;2.35;;;6.80;96.10;;;;;;5107775;28;20042;-65
2022/02/01 07:50:43;;;;;;;7.53;2.28;;;6.80;96.10;;;;;;5108199;28;20027;-66
2022/02/01 07:53:10;;;;;;;6.85;2.30;;;6.80;96.20;;;;;;5110963;28;20143;-67
2022/02/01 07:55:37;;;;;;;8.75;2.47;;;6.80;96.20;;;;;;5114579;28;20542;-67
2022/02/01 07:58:03;;;;;;;7.72;1.83;;;6.80;96.30;;;;;;5116719;28;20028;-65
2022/02/01 08:00:30;;;;;;;10.05;2.45;;;6.80;96.30;;;;;;5099916;28;20069;-64
2022/02/01 08:02:55;;;;;;;5.47;2.25;;;6.80;96.30;;;;;;5096029;28;20119;-64
2022/02/01 08:05:26;;;;;;;1.42;1.33;;;6.80;96.40;;;;;;5092213;28;20074;-65
2022/02/01 08:07:53;;;;;;;8.68;2.75;;;6.90;96.50;;;;;;5094496;28;20482;-64
2022/02/01 08:10:19;;;;;;;9.27;2.83;;;6.80;96.50;;;;;;5085975;28;20035;-65
2022/02/01 08:23:20;;;;;;;4.53;2.13;;;6.90;96.90;;;;;;5095256;28;20084;-65
2022/02/01 08:25:53;;;;;;;4.60;2.25;;;6.80;96.90;;;;;;5095614;28;20032;-67
2022/02/01 08:28:21;;;;;;;2.63;1.80;;;6.90;97.00;;;;;;5094738;28;20127;-67
2022/02/01 08:30:52;;;;;;;5.60;2.63;;;6.90;97.00;;;;;;5095755;28;20032;-67
2022/02/01 08:33:18;;;;;;;4.28;2.50;;;6.90;97.10;;;;;;5107347;28;20036;-67
2022/02/01 08:35:44;;;;;;;4.53;2.28;;;6.90;97.20;;;;;;5090069;28;20032;-67
2022/02/01 08:38:10;;;;;;;3.65;2.10;;;6.90;97.20;;;;;;5095301;28;20459;-66
2022/02/01 08:40:35;;;;;;;2.15;1.80;;;6.90;97.30;;;;;;5095014;28;20115;-67
2022/02/01 08:43:01;;;;;;;3.45;2.00;;;6.90;97.30;;;;;;5086971;28;20036;-66
2022/02/01 08:45:30;;;;;;;4.10;2.00;;;7.00;97.40;;;;;;5091120;28;20024;-67
2022/02/01 08:47:59;;;;;;;4.22;1.83;;;6.90;97.50;;;;;;5094886;28;20535;-67
2022/02/01 08:50:30;;;;;;;3.72;1.85;;;7.00;97.50;;;;;;5094106;28;20074;-67
2022/02/01 08:53:03;;;;;;;2.55;2.00;;;7.00;97.50;;;;;;5094922;28;20487;-67
2022/02/01 08:55:38;;;;;;;8.73;2.45;;;7.00;97.60;;;;;;5087397;28;20025;-67
2022/02/01 08:58:06;;;;;;;3.67;2.10;;;7.10;97.60;;;;;;5089002;28;20127;-67
2022/02/01 09:00:33;;;;;;;3.75;2.25;;;7.10;97.70;;;;;;5094832;28;20463;-67
2022/02/01 09:03:03;;;;;;;5.22;2.67;;;7.10;97.80;;;;;;5093887;28;20521;-68
2022/02/01 09:05:31;;;;;;;3.97;2.50;;;7.10;97.90;;;;;;5092544;28;20447;-65
2022/02/01 09:08:03;;;;;;;4.57;2.70;;;7.10;98.00;;;;;;5090896;28;20085;-65
2022/02/01 09:10:30;;;;;;;3.50;2.17;;;7.10;98.00;;;;;;5098787;28;20023;-64
2022/02/01 09:12:56;;;;;;;4.13;2.15;;;7.10;98.10;;;;;;5103081;28;20127;-67
2022/02/01 09:15:24;;;;;;;3.40;2.35;;;7.10;98.30;;;;;;5106973;28;20484;-65
2022/02/01 09:17:51;;;;;;;3.45;2.15;;;7.10;98.40;;;;;;5082430;28;20036;-65
2022/02/01 09:20:17;;;;;;;2.92;2.03;;;7.10;98.50;;;;;;5079048;28;20111;-65
2022/02/01 09:22:43;;;;;;;3.10;2.15;;;7.10;98.50;;;;;;5085637;28;20123;-65
2022/02/01 09:25:09;;;;;;;2.72;1.85;;;7.10;98.50;;;;;;5090420;28;20032;-65
2022/02/01 09:27:35;;;;;;;2.00;1.70;;;7.20;98.50;;;;;;5093754;28;20416;-65
2022/02/01 09:30:01;;;;;;;2.53;1.70;;;7.20;98.60;;;;;;5106106;28;20070;-65
2022/02/01 09:32:27;;;;;;;2.80;1.92;;;7.20;98.60;;;;;;5091643;28;20122;-65
2022/02/01 09:34:53;;;;;;;3.92;2.15;;;7.20;98.70;;;;;;5091308;28;20040;-65
2022/02/01 09:37:20;;;;;;;2.72;1.77;;;7.30;98.70;;;;;;5089595;28;20086;-65
2022/02/01 09:39:46;;;;;;;1.48;1.38;;;7.30;98.70;;;;;;5093349;28;20028;-65
2022/02/01 09:42:12;;;;;;;1.45;1.27;;;7.40;98.70;;;;;;5091974;28;20479;-65
2022/02/01 09:44:38;;;;;;;2.22;1.73;;;7.40;98.70;;;;;;5092484;28;20588;-65
2022/02/01 09:47:04;;;;;;;4.85;1.40;;;7.40;98.80;;;;;;5092182;28;20036;-65
2022/02/01 09:49:29;;;;;;;1.40;1.30;;;7.40;98.90;;;;;;5092994;28;20106;-65
2022/02/01 09:51:57;;;;;;;1.50;1.33;;;7.40;99.00;;;;;;5091919;28;20024;-65
2022/02/01 09:54:29;;;;;;;1.58;1.23;;;7.40;99.10;;;;;;5092300;28;20075;-65
2022/02/01 09:56:58;;;;;;;1.48;1.38;;;7.50;99.20;;;;;;5105903;28;20040;-65
2022/02/01 09:59:33;;;;;;;1.83;1.38;;;7.50;99.20;;;;;;5092068;28;20031;-65
2022/02/01 10:02:08;;;;;;;2.67;1.30;;;7.50;99.20;;;;;;5091639;28;20555;-65
2022/02/01 10:04:34;;;;;;;1.50;1.30;;;7.60;99.20;;;;;;5092345;28;20093;-65
2022/02/01 10:07:12;;;;;;;1.30;1.20;;;7.60;99.20;;;;;;5080329;28;20032;-64
2022/02/01 10:09:52;;;;;;;1.67;1.30;;;7.60;99.30;;;;;;5093552;28;20036;-65
2022/02/01 10:12:21;;;;;;;2.95;1.42;;;7.60;99.40;;;;;;5092999;28;20497;-65
2022/02/01 10:15:06;;;;;;;4.70;1.50;;;7.70;99.50;;;;;;5092316;28;20120;-65
2022/02/01 10:17:48;;;;;;;2.35;1.67;;;7.70;99.70;;;;;;5093545;28;20035;-65
2022/02/01 10:20:15;;;;;;;2.40;1.35;;;7.60;99.80;;;;;;5105903;28;20020;-67
2022/02/01 10:22:42;;;;;;;2.47;1.17;;;7.60;99.90;;;;;;5093149;28;20123;-67
2022/02/01 10:25:29;;;;;;;1.30;1.20;;;7.70;99.90;;;;;;5079938;28;20028;-67
2022/02/01 10:27:58;;;;;;;1.20;1.10;;;7.70;99.90;;;;;;5095949;28;20420;-67
2022/02/01 10:30:44;;;;;;;1.67;1.33;;;7.80;99.90;;;;;;5102864;28;20089;-67
2022/02/01 10:33:42;;;;;;;4.10;1.40;;;7.80;99.90;;;;;;5079758;28;20464;-67
2022/02/01 10:36:04;;;;;;;;;;;7.80;99.90;;;;;;5088418;28;20379;-67
2022/02/01 10:38:34;;;;;;;2.25;1.50;;;7.90;99.90;;;;;;5093167;28;19908;-67
2022/02/01 10:41:00;;;;;;;2.35;1.30;;;7.90;99.90;;;;;;5105651;28;20066;-67
2022/02/01 10:43:31;;;;;;;2.75;1.30;;;7.90;99.90;;;;;;5093072;28;20040;-67
2022/02/01 10:46:01;;;;;;;2.30;1.30;;;8.00;99.90;;;;;;5092457;28;20391;-68
2022/02/01 10:48:30;;;;;;;4.53;1.30;;;8.00;99.90;;;;;;5091832;28;20106;-68
2022/02/01 10:51:14;;;;;;;7.95;1.30;;;8.10;99.90;;;;;;5085784;28;20105;-68
2022/02/01 10:53:40;;;;;;;2.35;1.33;;;8.20;99.90;;;;;;5100028;28;20048;-68
2022/02/01 10:56:16;;;;;;;5.55;1.55;;;8.20;99.90;;;;;;5083059;28;20115;-68
2022/02/01 10:58:46;;;;;;;3.90;1.40;;;8.30;99.90;;;;;;5080589;28;20032;-68
2022/02/01 11:01:12;;;;;;;2.95;1.30;;;8.40;99.90;;;;;;5092623;28;20024;-68
2022/02/01 11:03:41;;;;;;;7.03;2.00;;;8.40;99.90;;;;;;5092087;28;20043;-67
2022/02/01 11:06:11;;;;;;;5.40;1.55;;;8.40;99.90;;;;;;5092394;28;20085;-68
2022/02/01 11:08:40;;;;;;;6.13;2.10;;;8.50;99.90;;;;;;5095503;28;20031;-68
2022/02/01 11:11:06;;;;;;;7.43;2.70;;;8.50;99.90;;;;;;5101862;28;20092;-68
2022/02/01 11:13:40;;;;;;;10.90;1.90;;;8.60;99.90;;;;;;5109611;28;20083;-65
2022/02/01 11:16:11;;;;;;;4.35;1.80;;;8.60;99.90;;;;;;5107286;28;20053;-65
2022/02/01 11:18:37;;;;;;;4.78;1.98;;;8.70;99.90;;;;;;5107195;28;20036;-65
2022/02/01 11:21:03;;;;;;;3.25;1.60;;;8.70;99.80;;;;;;5112011;28;20156;-66
2022/02/01 11:23:42;;;;;;;11.43;2.30;;;8.80;99.80;;;;;;5111089;28;20043;-66
2022/02/01 11:26:30;;;;;;;5.53;2.30;;;8.80;99.90;;;;;;5112219;28;20060;-66
2022/02/01 11:29:15;;;;;;;11.25;2.15;;;8.80;99.60;;;;;;5111910;28;20028;-66
2022/02/01 11:31:47;;;;;;;10.40;2.78;;;8.80;99.60;;;;;;5109918;28;20550;-66
2022/02/01 11:34:20;;;;;;;11.07;2.30;;;8.90;99.60;;;;;;5107504;28;20028;-66
2022/02/01 11:36:46;;;;;;;5.00;2.43;;;8.90;99.70;;;;;;5104482;28;20168;-66
2022/02/01 11:39:15;;;;;;;7.28;2.33;;;8.90;99.70;;;;;;5110980;28;20114;-68
2022/02/01 11:41:43;;;;;;;9.30;2.08;;;9.00;99.70;;;;;;5108751;28;20406;-67
2022/02/01 11:44:22;;;;;;;12.82;3.13;;;9.00;99.70;;;;;;5089754;28;20501;-69
2022/02/01 11:47:17;;;;;;;10.88;2.80;;;9.00;99.60;;;;;;5092166;28;20066;-67
2022/02/01 11:50:15;;;;;;;10.77;2.65;;;9.00;99.60;;;;;;5081083;28;20051;-67
2022/02/01 11:52:49;;;;;;;10.65;2.58;;;9.10;99.60;;;;;;5098795;28;20034;-66
2022/02/01 11:55:16;;;;;;;9.70;2.58;;;9.10;99.50;;;;;;5101845;28;20562;-67
2022/02/01 11:57:44;;;;;;;16.65;2.72;;;9.20;99.50;;;;;;5092100;28;20047;-67
2022/02/01 12:00:16;;;;;;;12.23;2.67;;;9.20;99.50;;;;;;5090942;28;20498;-67
2022/02/01 12:02:50;;;;;;;12.88;3.10;;;9.30;99.50;;;;;;5091988;28;20510;-67
2022/02/01 12:05:37;;;;;;;13.00;3.28;;;9.30;99.50;;;;;;5075726;28;20387;-67
2022/02/01 12:08:08;;;;;;;21.63;4.03;;;9.30;99.50;;;;;;5092291;28;20028;-67
2022/02/01 12:10:39;;;;;;;9.38;2.28;;;9.40;99.40;;;;;;5086856;28;20032;-67
2022/02/01 12:13:04;;;;;;;9.00;2.65;;;9.40;99.30;;;;;;5084421;28;20028;-67
2022/02/01 12:15:37;;;;;;;11.25;2.38;;;9.40;99.40;;;;;;5091985;28;20024;-67
2022/02/01 12:18:22;;;;;;;18.90;2.88;;;9.40;99.30;;;;;;5093189;28;20028;-67
2022/02/01 12:21:07;;;;;;;13.88;2.42;;;9.50;99.30;;;;;;5100863;28;20081;-74
2022/02/01 12:23:33;;;;;;;14.50;3.05;;;9.50;99.30;;;;;;5079876;28;20032;-66
2022/02/01 12:25:59;;;;;;;17.45;3.75;;;9.50;99.30;;;;;;5111215;28;20080;-67
2022/02/01 12:28:28;;;;;;;9.65;2.53;;;9.60;99.40;;;;;;5110267;28;20036;-67
2022/02/01 12:31:12;;;;;;;18.80;2.33;;;9.60;99.30;;;;;;5114457;28;20035;-66
2022/02/01 12:33:51;;;;;;;19.67;3.65;;;9.70;99.30;;;;;;5094871;28;20028;-67
2022/02/01 12:36:21;;;;;;;21.20;3.38;;;9.70;99.20;;;;;;5090340;28;20028;-66
2022/02/01 12:38:50;;;;;;;23.15;2.80;;;9.70;99.20;;;;;;5095209;28;20028;-66
2022/02/01 12:41:18;;;;;;;10.82;2.55;;;9.70;99.20;;;;;;5094250;28;20036;-67
2022/02/01 12:49:06;;;;;;;10.98;2.75;;;9.80;99.20;;;;;;5090612;28;20025;-67
2022/02/01 12:51:58;;;;;;;10.63;2.35;;;9.80;99.10;;;;;;5086154;28;20040;-67
2022/02/01 12:54:28;;;;;;;12.90;2.50;;;9.90;99.20;;;;;;5091984;28;20048;-67
2022/02/01 12:57:08;;;;;;;7.07;2.65;;;9.80;99.10;;;;;;5082879;28;20404;-67
2022/02/01 12:59:45;;;;;;;17.83;4.25;;;9.90;99.30;;;;;;5094836;28;20495;-67
2022/02/01 13:02:14;;;;;;;9.07;2.35;;;9.90;99.10;;;;;;5093887;28;20071;-67
2022/02/01 13:04:40;;;;;;;7.88;2.35;;;9.90;99.10;;;;;;5082971;28;20045;-67
2022/02/01 13:07:23;;;;;;;16.15;4.22;;;9.90;99.00;;;;;;5083923;28;20170;-66
2022/02/01 13:15:41;;;;;;;18.00;2.70;;;10.00;99.00;;;;;;5094339;28;20027;-66
2022/02/01 13:21:12;;;;;;;23.40;5.15;;;10.00;99.00;;;;;;5094464;28;20498;-66
2022/02/01 13:23:46;;;;;;;26.23;5.25;;;10.00;98.90;;;;;;5079769;28;20483;-67
2022/02/01 13:26:15;;;;;;;13.93;3.08;;;10.10;99.00;;;;;;5095379;28;20028;-66
2022/02/01 13:28:42;;;;;;;19.98;3.47;;;10.10;98.90;;;;;;5104086;27;20028;-66
2022/02/01 13:31:15;;;;;;;14.70;2.47;;;10.10;98.90;;;;;;5106395;28;20430;-66
2022/02/01 13:33:49;;;;;;;10.52;2.22;;;10.10;98.90;;;;;;5094507;28;20153;-70
2022/02/01 13:36:15;;;;;;;17.13;2.63;;;10.10;98.90;;;;;;5091199;28;20533;-66
2022/02/01 13:38:59;;;;;;;34.95;4.57;;;10.10;98.90;;;;;;5093511;28;20051;-66
2022/02/01 13:41:36;;;;;;;5.78;2.15;;;10.10;98.80;;;;;;5082732;28;20082;-66
2022/02/01 13:44:03;;;;;;;11.65;3.28;;;10.10;98.80;;;;;;5088697;28;20048;-66
2022/02/01 13:46:31;;;;;;;29.42;3.95;;;10.10;98.80;;;;;;5073857;28;20094;-66
2022/02/01 13:49:03;;;;;;;13.27;2.63;;;10.10;98.80;;;;;;5078173;28;20534;-67
2022/02/01 13:51:30;;;;;;;18.35;2.75;;;10.20;98.70;;;;;;5092865;28;20059;-66
2022/02/01 13:54:05;;;;;;;23.95;3.88;;;10.20;98.70;;;;;;5102766;28;20406;-66
2022/02/01 13:56:35;;;;;;;19.17;3.42;;;10.20;98.70;;;;;;5107972;28;20032;-66
2022/02/01 13:59:11;;;;;;;14.75;3.17;;;10.20;98.70;;;;;;5108364;28;20110;-66
2022/02/01 14:01:42;;;;;;;25.45;3.72;;;10.20;98.60;;;;;;5110191;28;20028;-66
2022/02/01 14:04:13;;;;;;;17.98;3.63;;;10.20;98.60;;;;;;5106944;28;20036;-66
2022/02/01 14:06:55;;;;;;;21.92;3.47;;;10.20;98.50;;;;;;5109134;28;20019;-66
2022/02/01 14:26:16;;;;;;;20.58;3.20;;;10.40;98.40;;;;;;5106000;28;20028;-67
2022/02/01 14:28:29;;;;;;;9.45;1.92;;;10.30;98.30;;;;;;5097917;28;20036;-66
2022/02/01 14:33:55;;;;;;;30.63;4.45;;;10.40;98.30;;;;;;5104370;28;20047;-68
2022/02/01 14:36:25;;;;;;;14.98;2.78;;;10.40;98.20;;;;;;5108749;28;20028;-67
2022/02/01 14:46:55;;;;;;;20.67;2.65;;;10.50;98.00;;;;;;5107336;28;20494;-66
2022/02/01 14:49:24;;;;;;;28.05;4.97;;;10.40;98.00;;;;;;5110317;28;20061;-67
2022/02/01 14:51:51;;;;;;;16.52;2.72;;;10.40;97.90;;;;;;5107513;28;20038;-66
2022/02/01 14:54:19;;;;;;;27.20;5.28;;;10.40;97.90;;;;;;5108869;28;20051;-66
2022/02/01 14:56:49;;;;;;;15.80;3.53;;;10.40;97.70;;;;;;5108679;28;20060;-66
2022/02/01 15:07:52;;;;;;;15.07;3.53;;;10.40;97.50;;;;;;5103392;28;20119;-66
2022/02/01 15:13:03;;;;;;;20.58;3.30;;;10.40;97.70;;;;;;5105705;28;20119;-66